Virtual LH

Virtual LH. There's no better way to fly
Since 2013.



AIRPORT MAP

METAR AND TAF INFORMATION

METAR FOR EPWA
ADDS - METARS form results

(0114 UTC 23 July 2019)
Data provider http://aviationweather.gov/metar/data/
 
METAR text: EPWA 230100Z 28003KT CAVOK 18/12 Q1019 NOSIG
Conditions at: EPWA (WARSAW/OKECIE , PL) observed 0100 UTC 23 July 2019
Temperature: 18.0°C (64°F)
Dewpoint: 12.0°C (54°F) [RH = 68%]
Pressure (altimeter): 30.09 inches Hg (1019.0 mb)
Winds: from the W (280 degrees) at 3 MPH (3 knots; 1.5 m/s)
Visibility: 6 or more miles (10+ km)
Ceiling: ceiling and visibility are OK
Clouds: unknown
Weather: no significant weather observed at this time

METAR text: EPWA 230030Z 29003KT CAVOK 18/12 Q1019 NOSIG
Conditions at: EPWA (WARSAW/OKECIE , PL) observed 0030 UTC 23 July 2019
Temperature: 18.0°C (64°F)
Dewpoint: 12.0°C (54°F) [RH = 68%]
Pressure (altimeter): 30.09 inches Hg (1019.0 mb)
Winds: from the WNW (290 degrees) at 3 MPH (3 knots; 1.5 m/s)
Visibility: 6 or more miles (10+ km)
Ceiling: ceiling and visibility are OK
Clouds: unknown
Weather: no significant weather observed at this time

Forecast for: EPWA (WARSAW/OKECIE , PL)
Text: TAF EPWA 222330Z 2300/2324 VRB04KT 9999 BKN030
Forecast period: 0000 UTC 23 July 2019 to 0000 UTC 24 July 2019
Forecast type: FROM: standard forecast or significant change
Winds: variable direction winds at 5 MPH (4 knots; 2.1 m/s)
Visibility: 6 or more miles 10+ km)
Ceiling: 3000 feet AGL
Clouds: broken clouds at 3000 feet AGL
Weather: no significant weather forecast for this period
Text: PROB40
Forecast period: 0500 to 1200 UTC 23 July 2019
Forecast type: TEMPORARY: The following changes expected for less than half the time period
Visibility: missing
Ceiling: 1400 feet AGL
Clouds: scattered clouds at 800 feet AGL
broken clouds at 1400 feet AGL
Weather: -RA  (light rain)

RUNWAY INFORMATION

Runway 11 Runway length 9186 ft Runway width 164 ft
Runway elevation 361 ft Runway displaced threshold 0 ft Runway heading 115
Runway 29 Runway length 9186 ft Runway width 164 ft
Runway elevation 344 ft Runway displaced threshold 1640 ft Runway heading 295
Runway 15 Runway length 12106 ft Runway width 197 ft
Runway elevation 351 ft Runway displaced threshold 0 ft Runway heading 152
Runway 33 Runway length 12106 ft Runway width 197 ft
Runway elevation 351 ft Runway displaced threshold 0 ft Runway heading 332

AIRPORT FREQUENCIES

Type APP Name WARSZAWA A Frequency 128.8 MHZ
Type ATIS Name ATIS Frequency 120.45 MHZ
Type CLD Name CLNC DEL Frequency 121.6 MHZ
Type DIR Name WARSZAWA D Frequency 129.375 MHZ
Type GND Name GND Frequency 121.9 MHZ
Type TWR Name TWR Frequency 118.3 MHZ

AIRPORT NEAR NAVIGATION AIDS

Type VOR-DME Name Okecie Frequency 113400 KHZ
Type NDB Name Piaseczno Frequency 330 KHZ
Type NDB Name Warszawa Frequency 336 KHZ
Type NDB Name Warszawa Frequency 412 KHZ
Type VOR-DME Name Zaborowek Frequency 114900 KHZ